createdAt,value
2022-12-16T00:00:16.784Z,2.93
2022-12-16T00:03:04.900Z,3.01
2022-12-16T00:05:37.752Z,3.10
2022-12-16T00:08:08.235Z,3.18
2022-12-16T00:10:53.204Z,3.26
2022-12-16T00:13:23.035Z,3.31
2022-12-16T00:15:51.134Z,3.24
2022-12-16T00:18:20.174Z,3.22
2022-12-16T00:20:51.374Z,3.25
2022-12-16T00:23:20.573Z,3.22
2022-12-16T00:25:48.784Z,3.16
2022-12-16T00:28:17.974Z,3.13
2022-12-16T00:30:48.591Z,3.10
2022-12-16T00:33:17.554Z,3.08
2022-12-16T00:35:46.106Z,3.13
2022-12-16T00:38:15.362Z,3.13
2022-12-16T00:40:43.915Z,3.14
2022-12-16T00:43:12.147Z,3.14
2022-12-16T00:45:40.347Z,3.08
2022-12-16T00:48:08.419Z,3.08
2022-12-16T00:50:39.699Z,2.98
2022-12-16T00:53:07.695Z,2.84
2022-12-16T00:55:36.598Z,2.88
2022-12-16T00:58:06.082Z,2.88
2022-12-16T01:00:34.097Z,2.83
2022-12-16T01:03:02.214Z,2.70
2022-12-16T01:05:30.447Z,2.76
2022-12-16T01:07:58.411Z,2.76
2022-12-16T01:10:26.476Z,2.74
2022-12-16T01:12:54.604Z,2.71
2022-12-16T01:15:23.977Z,2.70
2022-12-16T01:17:52.288Z,2.63
2022-12-16T01:20:20.323Z,2.66
2022-12-16T01:22:48.303Z,2.67
2022-12-16T01:25:17.785Z,2.70
2022-12-16T01:27:45.831Z,2.67
2022-12-16T01:30:16.461Z,2.68
2022-12-16T01:32:44.989Z,2.74
2022-12-16T01:35:43.946Z,2.73
2022-12-16T01:38:01.533Z,2.68
2022-12-16T01:40:30.019Z,2.69
2022-12-16T01:42:58.042Z,2.70
2022-12-16T01:45:33.444Z,2.65
2022-12-16T01:48:29.137Z,2.69
2022-12-16T01:51:21.099Z,2.67
2022-12-16T01:53:55.586Z,2.66
2022-12-16T01:56:28.243Z,2.62
2022-12-16T01:58:57.463Z,2.66
2022-12-16T02:01:28.203Z,2.67
2022-12-16T02:03:58.628Z,2.66
2022-12-16T02:06:28.671Z,2.64
2022-12-16T02:08:59.351Z,2.68
2022-12-16T02:11:36.667Z,2.57
2022-12-16T02:14:17.807Z,2.56
2022-12-16T02:17:05.590Z,2.55
2022-12-16T02:19:52.381Z,2.58
2022-12-16T02:22:44.741Z,2.56
2022-12-16T02:25:25.790Z,2.50
2022-12-16T02:28:05.976Z,2.55
2022-12-16T02:31:03.167Z,2.53
2022-12-16T02:33:39.900Z,2.58
2022-12-16T02:36:26.761Z,2.57
2022-12-16T02:39:05.027Z,2.63
2022-12-16T02:41:58.603Z,2.54
2022-12-16T02:44:49.957Z,2.60
2022-12-16T02:47:18.630Z,2.63
2022-12-16T02:49:55.204Z,2.65
2022-12-16T02:52:26.918Z,2.65
2022-12-16T02:55:02.343Z,2.53
2022-12-16T02:57:45.437Z,2.62
2022-12-16T03:00:22.928Z,2.66
2022-12-16T03:03:17.274Z,2.69
2022-12-16T03:05:48.722Z,2.69
2022-12-16T03:08:24.075Z,2.70
2022-12-16T03:10:58.073Z,2.72
2022-12-16T03:13:31.215Z,2.67
2022-12-16T03:16:01.633Z,2.63
2022-12-16T03:18:30.248Z,2.69
2022-12-16T03:21:05.341Z,2.70
2022-12-16T03:23:45.717Z,2.71
2022-12-16T03:26:23.031Z,2.64
2022-12-16T03:28:53.724Z,2.71
2022-12-16T03:31:36.378Z,2.73
2022-12-16T03:34:12.228Z,2.72
2022-12-16T03:36:42.207Z,2.73
2022-12-16T03:39:11.273Z,2.76
2022-12-16T03:41:39.965Z,2.75
2022-12-16T03:44:08.351Z,2.79
2022-12-16T03:46:36.690Z,2.84
2022-12-16T03:49:04.776Z,2.83
2022-12-16T03:51:33.345Z,2.81
2022-12-16T03:54:01.437Z,2.85
2022-12-16T03:56:29.392Z,2.86
2022-12-16T03:58:57.345Z,2.86
2022-12-16T04:01:25.460Z,2.87
2022-12-16T04:03:53.976Z,2.88
2022-12-16T04:06:22.002Z,2.87
2022-12-16T04:08:50.124Z,2.90
2022-12-16T04:11:37.179Z,2.93
2022-12-16T04:14:23.793Z,2.96
2022-12-16T04:17:10.812Z,2.95
2022-12-16T04:19:57.788Z,2.96
2022-12-16T04:22:48.752Z,2.98
2022-12-16T04:25:21.916Z,2.95
2022-12-16T04:27:50.099Z,2.98
2022-12-16T04:30:20.090Z,3.04
2022-12-16T04:33:15.463Z,3.06
2022-12-16T04:36:02.721Z,3.09
2022-12-16T04:39:09.474Z,3.13
2022-12-16T04:41:56.202Z,3.17
2022-12-16T04:44:44.495Z,3.22
2022-12-16T04:47:31.248Z,3.22
2022-12-16T04:50:17.951Z,3.23
2022-12-16T04:53:04.833Z,3.25
2022-12-16T04:55:51.070Z,3.03
2022-12-16T04:58:37.829Z,2.91
2022-12-16T05:01:25.016Z,2.85
2022-12-16T05:04:11.506Z,2.86
2022-12-16T05:06:58.215Z,2.91
2022-12-16T05:09:45.009Z,2.89
2022-12-16T05:12:34.264Z,2.90
2022-12-16T05:15:21.044Z,2.89
2022-12-16T05:18:09.355Z,2.91
2022-12-16T05:20:56.194Z,2.92
2022-12-16T05:23:42.721Z,2.89
2022-12-16T05:26:29.201Z,2.93
2022-12-16T05:29:15.511Z,2.95
2022-12-16T05:32:04.385Z,2.99
2022-12-16T05:34:51.995Z,3.01
2022-12-16T05:37:38.707Z,3.02
2022-12-16T05:40:26.411Z,3.05
2022-12-16T05:43:16.693Z,3.03
2022-12-16T05:46:06.721Z,3.08
2022-12-16T05:48:53.552Z,3.07
2022-12-16T05:51:40.858Z,3.08
2022-12-16T05:54:28.251Z,3.13
2022-12-16T05:57:16.426Z,3.17
2022-12-16T06:00:02.844Z,3.17
2022-12-16T06:03:05.659Z,3.17
2022-12-16T06:05:53.276Z,3.17
2022-12-16T06:08:40.033Z,3.21
2022-12-16T06:11:26.447Z,3.19
2022-12-16T06:14:14.273Z,3.18
2022-12-16T06:17:00.934Z,3.18
2022-12-16T06:19:47.642Z,3.16
2022-12-16T06:22:33.994Z,3.15
2022-12-16T06:25:20.279Z,3.12
2022-12-16T06:28:11.568Z,3.12
2022-12-16T06:30:59.859Z,3.10
2022-12-16T06:33:50.655Z,3.07
2022-12-16T06:36:41.575Z,3.10
2022-12-16T06:39:29.301Z,3.13
2022-12-16T06:42:16.386Z,3.05
2022-12-16T06:45:04.110Z,3.11
2022-12-16T06:47:50.480Z,3.12
2022-12-16T06:50:41.655Z,3.17
2022-12-16T06:53:31.378Z,3.21
2022-12-16T06:56:19.196Z,3.27
2022-12-16T06:59:06.410Z,3.30
2022-12-16T07:01:53.690Z,3.32
2022-12-16T07:04:40.849Z,3.35
2022-12-16T07:07:27.813Z,3.35
2022-12-16T07:10:14.275Z,3.41
2022-12-16T07:13:01.570Z,3.34
2022-12-16T07:15:48.243Z,3.39
2022-12-16T07:18:34.950Z,3.40
2022-12-16T07:21:24.209Z,3.50
2022-12-16T07:24:12.422Z,3.51
2022-12-16T07:26:58.789Z,3.49
2022-12-16T07:29:48.627Z,3.60
2022-12-16T07:32:35.221Z,3.65
2022-12-16T07:35:21.772Z,3.68
2022-12-16T07:38:08.021Z,3.75
2022-12-16T07:41:14.705Z,3.81
2022-12-16T07:44:01.087Z,3.88
2022-12-16T07:46:47.542Z,3.91
2022-12-16T07:49:34.475Z,3.94
2022-12-16T07:52:22.587Z,3.95
2022-12-16T07:55:09.195Z,3.96
2022-12-16T07:57:55.939Z,4.02
2022-12-16T08:00:42.541Z,4.10
2022-12-16T08:03:29.262Z,4.15
2022-12-16T08:06:17.651Z,4.18
2022-12-16T08:09:04.803Z,4.24
2022-12-16T08:11:54.676Z,4.30
2022-12-16T08:14:42.874Z,4.36
2022-12-16T08:17:29.710Z,4.45
2022-12-16T08:20:16.710Z,4.55
2022-12-16T08:23:04.403Z,4.64
2022-12-16T08:25:51.857Z,4.71
2022-12-16T08:28:42.321Z,4.81
2022-12-16T08:31:29.126Z,4.83
2022-12-16T08:34:16.096Z,4.94
2022-12-16T08:37:02.929Z,5.04
2022-12-16T08:40:04.881Z,5.08
2022-12-16T08:42:57.546Z,4.89
2022-12-16T08:45:45.550Z,4.97
2022-12-16T08:48:32.121Z,5.12
2022-12-16T08:51:24.804Z,5.21
2022-12-16T08:54:11.388Z,5.31
2022-12-16T08:57:01.249Z,5.39
2022-12-16T08:59:47.902Z,5.49
2022-12-16T09:02:36.475Z,5.59
2022-12-16T09:05:24.102Z,5.56
2022-12-16T09:08:11.599Z,5.59
2022-12-16T09:10:58.065Z,5.67
2022-12-16T09:13:55.001Z,5.75
2022-12-16T09:16:41.724Z,5.89
2022-12-16T09:19:29.153Z,5.99
2022-12-16T09:22:15.978Z,6.08
2022-12-16T09:25:02.720Z,6.14
2022-12-16T09:27:49.757Z,6.25
2022-12-16T09:30:36.500Z,6.31
2022-12-16T09:33:27.376Z,6.41
2022-12-16T09:36:14.836Z,6.51
2022-12-16T09:39:02.000Z,6.59
2022-12-16T09:42:02.368Z,6.62
2022-12-16T09:45:13.428Z,6.66
2022-12-16T09:48:29.388Z,6.57
2022-12-16T09:51:21.772Z,6.58
2022-12-16T09:54:11.529Z,6.63
2022-12-16T09:56:59.972Z,6.69
2022-12-16T09:59:53.043Z,6.77
2022-12-16T10:02:42.928Z,6.88
2022-12-16T10:05:32.245Z,7.01
2022-12-16T10:08:43.156Z,7.11
2022-12-16T10:11:46.233Z,7.18
2022-12-16T10:14:50.105Z,7.25
2022-12-16T10:17:46.704Z,7.36
2022-12-16T10:20:48.796Z,7.46
2022-12-16T10:23:50.312Z,7.57
2022-12-16T10:26:46.068Z,7.55
2022-12-16T10:29:43.850Z,7.66
2022-12-16T10:32:42.461Z,7.80
2022-12-16T10:35:47.424Z,7.91
2022-12-16T10:38:48.152Z,8.11
2022-12-16T10:41:36.787Z,8.26
2022-12-16T10:44:34.992Z,8.38
2022-12-16T10:47:22.048Z,8.47
2022-12-16T10:50:20.564Z,8.59
2022-12-16T10:53:19.090Z,8.63
2022-12-16T10:56:11.832Z,8.71
2022-12-16T10:59:15.291Z,8.74
2022-12-16T11:02:18.741Z,8.75
2022-12-16T11:05:08.308Z,8.87
2022-12-16T11:08:08.739Z,8.98
2022-12-16T11:11:01.489Z,8.96
2022-12-16T11:14:09.568Z,9.02
2022-12-16T11:16:59.589Z,9.09
2022-12-16T11:19:49.120Z,9.16
2022-12-16T11:22:42.103Z,9.27
2022-12-16T11:25:37.134Z,9.33
2022-12-16T11:28:37.010Z,9.41
2022-12-16T11:31:33.206Z,9.59
2022-12-16T11:34:24.980Z,9.75
2022-12-16T11:37:13.712Z,9.88
2022-12-16T11:40:03.516Z,9.99
2022-12-16T11:42:51.379Z,10.07
2022-12-16T11:45:42.553Z,10.16
2022-12-16T11:49:23.488Z,10.23
2022-12-16T11:52:36.247Z,10.30
2022-12-16T11:59:11.719Z,10.59
2022-12-16T12:02:08.320Z,10.65
2022-12-16T12:04:57.192Z,10.62
2022-12-16T12:08:05.642Z,10.67
2022-12-16T12:11:20.672Z,10.72
2022-12-16T12:14:10.356Z,10.79
2022-12-16T12:17:23.089Z,10.77
2022-12-16T12:20:18.935Z,10.69
2022-12-16T12:23:05.973Z,10.80
2022-12-16T12:26:29.834Z,10.90
2022-12-16T12:30:16.153Z,11.01
2022-12-16T12:33:16.918Z,11.16
2022-12-16T12:36:23.025Z,11.25
2022-12-16T12:39:22.285Z,11.36
2022-12-16T12:42:14.942Z,11.37
2022-12-16T12:45:04.328Z,11.43
2022-12-16T12:47:54.744Z,11.42
2022-12-16T12:50:55.185Z,11.39
2022-12-16T12:53:47.923Z,11.31
2022-12-16T12:56:46.642Z,11.26
2022-12-16T12:59:49.081Z,11.24
2022-12-16T13:02:41.998Z,11.16
2022-12-16T13:05:32.941Z,11.17
2022-12-16T13:08:59.778Z,11.14
2022-12-16T13:11:47.716Z,11.20
2022-12-16T13:14:51.282Z,11.22
2022-12-16T13:17:39.643Z,11.20
2022-12-16T13:20:51.514Z,11.15
2022-12-16T13:23:58.749Z,11.15
2022-12-16T13:26:48.450Z,11.09
2022-12-16T13:29:41.301Z,11.02
2022-12-16T13:32:28.692Z,10.84
2022-12-16T13:35:30.824Z,10.78
2022-12-16T13:38:29.155Z,10.69
2022-12-16T13:41:22.760Z,10.64
2022-12-16T13:44:15.511Z,10.57
2022-12-16T13:47:05.010Z,10.52
2022-12-16T13:49:54.722Z,10.46
2022-12-16T13:53:06.787Z,10.45
2022-12-16T13:56:12.091Z,10.46
2022-12-16T13:59:11.111Z,10.40
2022-12-16T14:02:17.108Z,10.36
2022-12-16T14:05:12.002Z,10.30
2022-12-16T14:07:59.502Z,10.25
2022-12-16T14:10:48.052Z,10.21
2022-12-16T14:13:52.608Z,10.12
2022-12-16T14:16:56.475Z,10.04
2022-12-16T14:20:10.852Z,9.98
2022-12-16T14:23:10.638Z,9.92
2022-12-16T14:26:01.125Z,9.88
2022-12-16T14:28:52.809Z,9.84
2022-12-16T14:31:49.110Z,9.78
2022-12-16T14:34:48.403Z,9.75
2022-12-16T14:37:37.936Z,9.71
2022-12-16T14:40:43.103Z,9.66
2022-12-16T14:43:38.670Z,9.60
2022-12-16T14:46:46.797Z,9.51
2022-12-16T14:49:52.739Z,9.43
2022-12-16T14:52:45.025Z,9.38
2022-12-16T14:55:45.567Z,9.33
2022-12-16T14:58:35.681Z,9.30
2022-12-16T15:01:43.917Z,9.24
2022-12-16T15:04:40.791Z,9.17
2022-12-16T15:07:33.512Z,9.12
2022-12-16T15:10:24.275Z,9.07
2022-12-16T15:13:11.289Z,8.99
2022-12-16T15:16:06.228Z,8.93
2022-12-16T15:18:57.461Z,8.89
2022-12-16T15:21:44.811Z,8.86
2022-12-16T15:24:41.773Z,8.86
2022-12-16T15:27:55.517Z,8.83
2022-12-16T15:30:57.873Z,8.88
2022-12-16T15:33:56.938Z,8.91
2022-12-16T15:36:52.216Z,8.90
2022-12-16T15:39:47.528Z,8.87
2022-12-16T15:42:38.750Z,8.85
2022-12-16T15:45:56.283Z,8.82
2022-12-16T15:48:51.421Z,8.81
2022-12-16T15:51:51.164Z,8.77
2022-12-16T15:54:42.429Z,8.77
2022-12-16T15:57:51.503Z,8.74
2022-12-16T16:00:43.377Z,8.68
2022-12-16T16:03:44.439Z,8.63
2022-12-16T16:06:42.053Z,8.58
2022-12-16T16:09:44.956Z,8.48
2022-12-16T16:12:36.426Z,8.38
2022-12-16T16:15:25.475Z,8.36
2022-12-16T16:18:16.871Z,8.27
2022-12-16T16:21:05.770Z,8.23
2022-12-16T16:23:54.276Z,8.20
2022-12-16T16:26:45.427Z,8.15
2022-12-16T16:29:32.515Z,8.10
2022-12-16T16:32:21.089Z,8.11
2022-12-16T16:35:07.698Z,8.10
2022-12-16T16:37:54.545Z,8.12
2022-12-16T16:40:58.496Z,8.02
2022-12-16T16:43:56.623Z,7.92
2022-12-16T16:46:43.128Z,7.89
2022-12-16T16:49:43.037Z,7.83
2022-12-16T16:52:35.013Z,7.75
2022-12-16T16:55:22.376Z,7.68
2022-12-16T16:58:09.552Z,7.60
2022-12-16T17:00:56.594Z,7.51
2022-12-16T17:03:45.940Z,7.48
2022-12-16T17:06:34.528Z,7.47
2022-12-16T17:09:26.153Z,7.48
2022-12-16T17:12:13.761Z,7.54
2022-12-16T17:15:00.382Z,7.56
2022-12-16T17:17:48.184Z,7.56
2022-12-16T17:20:36.470Z,7.50
2022-12-16T17:23:23.287Z,7.48
2022-12-16T17:26:10.313Z,7.41
2022-12-16T17:28:56.979Z,7.35
2022-12-16T17:31:46.592Z,7.28
2022-12-16T17:34:33.296Z,7.23
2022-12-16T17:37:19.920Z,7.19
2022-12-16T17:40:06.920Z,7.20
2022-12-16T17:42:54.717Z,7.18
2022-12-16T17:45:42.780Z,7.14
2022-12-16T17:48:30.166Z,7.12
2022-12-16T17:51:17.016Z,7.06
2022-12-16T17:54:12.122Z,6.99
2022-12-16T17:57:07.763Z,6.97
2022-12-16T18:00:04.197Z,6.94
2022-12-16T18:03:11.836Z,6.87
2022-12-16T18:06:01.168Z,6.79
2022-12-16T18:08:51.245Z,6.69
2022-12-16T18:11:39.135Z,6.65
2022-12-16T18:14:25.647Z,6.63
2022-12-16T18:17:12.719Z,6.59
2022-12-16T18:20:00.572Z,6.55
2022-12-16T18:22:47.386Z,6.55
2022-12-16T18:25:34.043Z,6.60
2022-12-16T18:28:32.924Z,6.61
2022-12-16T18:31:23.699Z,6.64
2022-12-16T18:34:10.631Z,6.70
2022-12-16T18:36:56.967Z,6.74
2022-12-16T18:39:43.889Z,6.78
2022-12-16T18:42:31.055Z,6.80
2022-12-16T18:45:17.684Z,6.80
2022-12-16T18:48:04.685Z,6.81
2022-12-16T18:50:52.807Z,6.76
2022-12-16T18:53:45.752Z,6.72
2022-12-16T18:56:33.546Z,6.70
2022-12-16T18:59:20.148Z,6.69
2022-12-16T19:02:06.906Z,6.68
2022-12-16T19:04:53.584Z,6.62
2022-12-16T19:07:45.010Z,6.64
2022-12-16T19:10:31.768Z,6.66
2022-12-16T19:13:23.028Z,6.69
2022-12-16T19:16:15.965Z,6.69
2022-12-16T19:19:03.497Z,6.71
2022-12-16T19:21:56.635Z,6.64
2022-12-16T19:24:43.476Z,6.56
2022-12-16T19:27:31.707Z,6.50
2022-12-16T19:30:17.914Z,6.49
2022-12-16T19:33:24.062Z,6.49
2022-12-16T19:36:34.415Z,6.51
2022-12-16T19:39:20.994Z,6.54
2022-12-16T19:42:08.038Z,6.56
2022-12-16T19:44:58.333Z,6.61
2022-12-16T19:47:44.839Z,6.64
2022-12-16T19:50:37.029Z,6.68
2022-12-16T19:53:24.136Z,6.68
2022-12-16T19:56:15.084Z,6.72
2022-12-16T19:59:03.923Z,6.74
2022-12-16T20:01:50.658Z,6.73
2022-12-16T20:04:38.762Z,6.71
2022-12-16T20:07:26.674Z,6.76
2022-12-16T20:10:13.306Z,6.76
2022-12-16T20:13:03.721Z,6.82
2022-12-16T20:15:51.806Z,6.85
2022-12-16T20:18:38.135Z,6.86
2022-12-16T20:21:24.589Z,6.89
2022-12-16T20:24:10.968Z,6.92
2022-12-16T20:26:58.489Z,6.97
2022-12-16T20:29:45.283Z,6.93
2022-12-16T20:32:31.892Z,6.96
2022-12-16T20:35:19.307Z,7.01
2022-12-16T20:38:06.004Z,7.04
2022-12-16T20:40:52.921Z,7.11
2022-12-16T20:43:45.824Z,7.20
2022-12-16T20:46:32.364Z,7.24
2022-12-16T20:49:21.599Z,7.28
2022-12-16T20:52:08.410Z,7.37
2022-12-16T20:54:56.306Z,7.44
2022-12-16T20:57:45.184Z,7.51
2022-12-16T21:00:33.092Z,7.54
2022-12-16T21:03:19.788Z,7.50
2022-12-16T21:06:06.209Z,7.51
2022-12-16T21:08:52.933Z,7.52
2022-12-16T21:11:40.020Z,7.45
2022-12-16T21:14:26.410Z,7.38
2022-12-16T21:17:12.830Z,7.38
2022-12-16T21:19:59.103Z,7.41
2022-12-16T21:22:48.042Z,7.36
2022-12-16T21:25:34.826Z,7.40
2022-12-16T21:28:24.221Z,7.43
2022-12-16T21:31:10.740Z,7.47
2022-12-16T21:33:57.489Z,7.49
2022-12-16T21:36:44.164Z,7.49
2022-12-16T21:39:30.551Z,7.54
2022-12-16T21:42:18.287Z,7.57
2022-12-16T21:45:05.351Z,7.58
2022-12-16T21:47:53.415Z,7.56
2022-12-16T21:50:42.607Z,7.56
2022-12-16T21:53:29.457Z,7.58
2022-12-16T21:56:16.236Z,7.58
2022-12-16T21:59:02.799Z,7.60
2022-12-16T22:01:49.579Z,7.66
2022-12-16T22:04:35.977Z,7.68
2022-12-16T22:07:25.821Z,7.72
2022-12-16T22:10:12.566Z,7.73
2022-12-16T22:13:02.418Z,7.70
2022-12-16T22:15:49.174Z,7.67
2022-12-16T22:18:38.730Z,7.66
2022-12-16T22:21:29.589Z,7.72
2022-12-16T22:24:16.883Z,7.78
2022-12-16T22:27:03.617Z,7.82
2022-12-16T22:29:50.088Z,7.89
2022-12-16T22:32:36.645Z,7.95
2022-12-16T22:35:24.059Z,7.98
2022-12-16T22:38:11.885Z,8.02
2022-12-16T22:40:58.505Z,8.07
2022-12-16T22:43:50.130Z,8.13
2022-12-16T22:46:36.815Z,8.18
2022-12-16T22:49:23.574Z,8.24
2022-12-16T22:52:10.462Z,8.31
2022-12-16T22:54:57.149Z,8.35
2022-12-16T22:57:47.060Z,8.36
2022-12-16T23:00:36.685Z,8.38
2022-12-16T23:03:23.170Z,8.38
2022-12-16T23:06:09.786Z,8.40
2022-12-16T23:08:56.801Z,8.38
2022-12-16T23:11:50.460Z,8.39
2022-12-16T23:14:42.789Z,8.43
2022-12-16T23:17:31.501Z,8.42
2022-12-16T23:20:20.412Z,8.49
2022-12-16T23:23:06.979Z,8.56
2022-12-16T23:25:53.875Z,8.60
2022-12-16T23:29:00.197Z,8.62
2022-12-16T23:31:49.269Z,8.64
2022-12-16T23:34:40.883Z,8.59
2022-12-16T23:37:33.256Z,8.61
2022-12-16T23:40:19.717Z,8.64
2022-12-16T23:43:06.819Z,8.61
2022-12-16T23:45:54.189Z,8.57
2022-12-16T23:48:42.849Z,8.60
2022-12-16T23:51:29.139Z,8.63
2022-12-16T23:54:16.022Z,8.68
2022-12-16T23:57:02.253Z,8.71
2022-12-16T23:59:48.571Z,8.68
